Time;durP1;ratioP1;P1;durP2;ratioP2;P2;SDS_P1;SDS_P2;PMS_P1;PMS_P2;Temp;Humidity;BMP_temperature;BMP_pressure;BME280_temperature;BME280_humidity;BME280_pressure;Samples;Min_cycle;Max_cycle;Signal;HPM_P1;HPM_P2
2024/01/11 00:00:45;;;;;;;48.97;30.05;;;;;;;-2.12;60.01;95516.53;4203784;28;20049;-69
2024/01/11 00:02:47;;;;;;;53.58;30.73;;;;;;;-2.11;60.32;95515.66;4196494;28;20438;-69
2024/01/11 00:04:49;;;;;;;45.47;27.55;;;;;;;-2.09;59.61;95508.72;4197031;28;20328;-70
2024/01/11 00:06:51;;;;;;;51.80;28.90;;;;;;;-2.03;59.51;95506.78;4201383;28;20087;-69
2024/01/11 00:08:53;;;;;;;50.80;30.52;;;;;;;-2.14;59.48;95509.81;4200624;28;20049;-70
2024/01/11 00:10:55;;;;;;;49.55;28.88;;;;;;;-2.17;60.28;95503.06;4196515;28;21015;-70
2024/01/11 00:12:58;;;;;;;48.92;27.13;;;;;;;-2.13;59.98;95501.19;4199382;28;20470;-69
2024/01/11 00:15:00;;;;;;;43.38;25.95;;;;;;;-2.17;59.60;95502.22;4196112;28;20132;-69
2024/01/11 00:17:02;;;;;;;49.83;27.45;;;;;;;-2.16;59.83;95498.75;4198772;28;20048;-68
2024/01/11 00:19:04;;;;;;;50.85;27.08;;;;;;;-2.02;60.52;95500.75;4201949;28;20044;-69
2024/01/11 00:21:06;;;;;;;44.75;26.70;;;;;;;-2.02;60.13;95499.03;4205966;28;20391;-67
2024/01/11 00:23:08;;;;;;;38.13;22.80;;;;;;;-1.94;59.39;95498.72;4198659;28;20127;-67
2024/01/11 00:25:10;;;;;;;42.55;25.95;;;;;;;-1.86;59.51;95501.78;4208383;28;20684;-70
2024/01/11 00:27:12;;;;;;;46.63;27.60;;;;;;;-1.86;59.48;95500.06;4207768;28;20067;-70
2024/01/11 00:29:14;;;;;;;46.22;26.23;;;;;;;-1.73;59.99;95500.38;4194454;28;20075;-69
2024/01/11 00:31:16;;;;;;;46.10;24.42;;;;;;;-1.69;59.29;95495.94;4197804;28;20079;-69
2024/01/11 00:33:18;;;;;;;39.53;23.33;;;;;;;-1.66;59.09;95490.66;4207609;28;20109;-69
2024/01/11 00:35:21;;;;;;;41.25;23.02;;;;;;;-1.69;58.85;95496.78;4207893;28;20109;-69
2024/01/11 00:37:23;;;;;;;42.77;22.90;;;;;;;-1.74;58.84;95498.72;4206231;28;20558;-69
2024/01/11 00:39:29;;;;;;;38.75;22.67;;;;;;;-1.69;59.52;95493.38;4209267;28;20463;-71
2024/01/11 00:41:31;;;;;;;44.03;25.48;;;;;;;-1.73;59.85;95489.28;4208635;28;20435;-69
2024/01/11 00:43:33;;;;;;;42.22;24.70;;;;;;;-1.84;60.10;95487.16;4194126;28;20044;-70
2024/01/11 00:45:35;;;;;;;44.17;24.58;;;;;;;-2.00;60.06;95489.53;4208681;28;20040;-68
2024/01/11 00:47:38;;;;;;;46.35;26.65;;;;;;;-2.15;61.00;95493.56;4204533;28;20192;-70
2024/01/11 00:49:40;;;;;;;44.28;26.75;;;;;;;-2.23;61.63;95492.22;4201569;28;20068;-70
2024/01/11 00:51:42;;;;;;;50.78;28.90;;;;;;;-2.24;62.17;95491.34;4202355;28;20489;-69
2024/01/11 00:53:44;;;;;;;47.00;29.23;;;;;;;-2.33;61.65;95490.00;4204913;28;20443;-72
2024/01/11 00:55:46;;;;;;;50.95;29.38;;;;;;;-2.47;62.40;95490.56;4199921;28;20060;-70
2024/01/11 00:57:48;;;;;;;43.00;27.08;;;;;;;-2.52;63.05;95482.22;4194383;28;20750;-70
2024/01/11 00:59:50;;;;;;;47.85;28.75;;;;;;;-2.49;64.08;95476.97;4204152;28;20540;-70
2024/01/11 01:01:52;;;;;;;55.80;30.52;;;;;;;-2.42;63.63;95476.72;4202226;28;20048;-69
2024/01/11 01:03:54;;;;;;;49.40;29.85;;;;;;;-2.41;63.22;95475.81;4196108;28;20052;-66
2024/01/11 01:05:56;;;;;;;50.85;29.80;;;;;;;-2.41;63.02;95468.97;4200141;28;20178;-67
2024/01/11 01:07:58;;;;;;;49.63;28.55;;;;;;;-2.43;63.30;95480.16;4207575;28;20228;-69
2024/01/11 01:10:00;;;;;;;54.63;31.63;;;;;;;-2.39;62.88;95474.84;4201460;28;20356;-68
2024/01/11 01:12:02;;;;;;;52.78;31.88;;;;;;;-2.39;62.45;95474.03;4201844;28;20075;-69
2024/01/11 01:14:05;;;;;;;53.53;31.42;;;;;;;-2.51;62.89;95478.75;4197703;28;20044;-68
2024/01/11 01:16:07;;;;;;;54.40;30.98;;;;;;;-2.53;63.69;95477.97;4201227;28;20105;-70
2024/01/11 01:18:09;;;;;;;52.88;32.60;;;;;;;-2.46;63.68;95476.00;4205636;28;20119;-69
2024/01/11 01:20:11;;;;;;;61.05;34.10;;;;;;;-2.40;63.07;95469.81;4196461;28;20056;-69
2024/01/11 01:22:13;;;;;;;55.70;32.25;;;;;;;-2.43;63.33;95477.59;4197615;28;20083;-70
2024/01/11 01:24:15;;;;;;;56.97;33.85;;;;;;;-2.44;62.92;95481.91;4207321;28;20143;-70
2024/01/11 01:26:17;;;;;;;54.40;33.10;;;;;;;-2.45;63.10;95484.53;4200229;28;20216;-70
2024/01/11 01:28:18;;;;;;;61.25;33.78;;;;;;;-2.47;63.49;95472.59;4201671;28;20052;-70
2024/01/11 01:30:20;;;;;;;54.05;33.85;;;;;;;-2.47;63.51;95467.47;4200500;28;20446;-70
2024/01/11 01:32:22;;;;;;;51.50;31.88;;;;;;;-2.44;63.60;95468.25;4196885;28;20097;-71
2024/01/11 01:34:24;;;;;;;67.00;38.70;;;;;;;-2.40;63.58;95473.19;4207444;28;20115;-69
2024/01/11 01:36:26;;;;;;;65.20;39.65;;;;;;;-2.34;62.99;95462.69;4200195;28;20506;-70
2024/01/11 01:38:30;;;;;;;67.07;39.92;;;;;;;-2.28;62.97;95461.59;4201864;28;20470;-68
2024/01/11 01:40:32;;;;;;;64.57;39.33;;;;;;;-2.27;62.85;95455.56;4201816;28;20050;-70
2024/01/11 01:42:34;;;;;;;57.45;37.72;;;;;;;-2.34;63.17;95451.59;4202806;28;20508;-70
2024/01/11 01:44:36;;;;;;;61.40;35.78;;;;;;;-2.40;63.11;95451.84;4201594;28;20101;-67
2024/01/11 01:46:39;;;;;;;61.30;35.22;;;;;;;-2.46;63.25;95447.78;4200258;28;20116;-71
2024/01/11 01:48:41;;;;;;;60.08;34.75;;;;;;;-2.44;63.57;95445.16;4202255;28;20055;-69
2024/01/11 01:50:50;;;;;;;57.30;33.80;;;;;;;-2.47;63.51;95441.81;4209287;28;20155;-70
2024/01/11 01:52:52;;;;;;;55.47;33.22;;;;;;;-2.44;64.14;95438.28;4194981;28;20070;-68
2024/01/11 01:54:54;;;;;;;55.53;32.17;;;;;;;-2.41;63.71;95434.75;4209630;28;20098;-72
2024/01/11 01:56:56;;;;;;;49.63;30.95;;;;;;;-2.42;64.13;95435.66;4207480;28;20051;-71
2024/01/11 01:58:58;;;;;;;49.90;30.40;;;;;;;-2.48;63.59;95435.00;4210250;28;20451;-69
2024/01/11 02:01:01;;;;;;;54.50;30.80;;;;;;;-2.54;63.49;95435.28;4204601;28;20059;-69
2024/01/11 02:03:03;;;;;;;55.53;32.05;;;;;;;-2.64;63.51;95431.41;4200101;28;20044;-68
2024/01/11 02:05:06;;;;;;;51.90;30.05;;;;;;;-2.77;64.12;95428.50;4204386;28;20180;-69
2024/01/11 02:07:08;;;;;;;49.53;28.90;;;;;;;-2.93;63.97;95428.25;4207722;28;20082;-69
2024/01/11 02:09:11;;;;;;;44.63;27.42;;;;;;;-3.00;63.44;95424.25;4199896;28;20331;-69
2024/01/11 02:11:13;;;;;;;43.30;27.00;;;;;;;-2.96;63.56;95427.53;4196851;28;20060;-70
2024/01/11 02:13:15;;;;;;;47.40;27.00;;;;;;;-2.95;63.76;95429.19;4198928;28;20086;-70
2024/01/11 02:15:17;;;;;;;45.28;26.60;;;;;;;-3.04;63.68;95425.28;4200010;28;20433;-71
2024/01/11 02:17:20;;;;;;;44.38;26.30;;;;;;;-2.96;64.33;95432.69;4200578;28;20098;-70
2024/01/11 02:19:22;;;;;;;41.22;25.25;;;;;;;-2.87;63.81;95427.19;4195779;28;20087;-70
2024/01/11 02:21:24;;;;;;;43.47;26.58;;;;;;;-2.82;63.54;95422.69;4204673;28;20163;-70
2024/01/11 02:23:26;;;;;;;42.05;25.63;;;;;;;-2.77;62.93;95423.38;4210718;28;20162;-70
2024/01/11 02:25:28;;;;;;;41.30;23.75;;;;;;;-2.81;62.52;95426.13;4194375;28;20486;-70
2024/01/11 02:27:30;;;;;;;41.80;24.83;;;;;;;-2.84;62.72;95423.66;4195535;28;20053;-70
2024/01/11 02:29:32;;;;;;;40.03;24.58;;;;;;;-2.85;62.69;95422.00;4198739;28;20073;-70
2024/01/11 02:31:34;;;;;;;40.13;24.92;;;;;;;-2.86;62.34;95420.31;4196590;28;20049;-70
2024/01/11 02:33:35;;;;;;;40.75;25.02;;;;;;;-2.89;62.38;95424.66;4205973;28;20465;-70
2024/01/11 02:35:39;;;;;;;44.67;24.02;;;;;;;-2.81;62.27;95421.81;4200097;28;20055;-70
2024/01/11 02:37:46;;;;;;;42.00;23.88;;;;;;;-2.80;62.26;95422.63;4201692;28;20135;-70
2024/01/11 02:39:50;;;;;;;44.23;24.73;;;;;;;-2.92;61.32;95424.81;4209272;28;20044;-71
2024/01/11 02:41:57;;;;;;;48.88;24.67;;;;;;;-3.11;62.32;95419.53;4195115;28;20478;-68
2024/01/11 02:44:00;;;;;;;39.13;23.17;;;;;;;-3.13;62.48;95420.50;4197069;28;20052;-68
2024/01/11 02:46:03;;;;;;;36.75;21.95;;;;;;;-3.17;62.17;95419.78;4201854;28;20052;-70
2024/01/11 02:48:05;;;;;;;41.88;24.15;;;;;;;-3.29;62.42;95410.00;4204167;28;20130;-69
2024/01/11 02:50:07;;;;;;;46.03;24.35;;;;;;;-3.39;62.17;95416.38;4208032;28;20071;-68
2024/01/11 02:52:09;;;;;;;45.47;25.50;;;;;;;-3.44;62.73;95416.53;4203980;28;20051;-69
2024/01/11 02:54:11;;;;;;;40.20;25.15;;;;;;;-3.46;62.79;95413.22;4201327;28;20391;-69
2024/01/11 02:56:17;;;;;;;42.05;25.27;;;;;;;-3.40;62.87;95412.97;4200300;28;20139;-72
2024/01/11 02:58:19;;;;;;;36.63;22.27;;;;;;;-3.39;62.52;95409.50;4202486;28;20051;-70
2024/01/11 03:00:21;;;;;;;39.10;23.33;;;;;;;-3.36;62.37;95411.13;4198355;28;20514;-70
2024/01/11 03:02:22;;;;;;;39.60;22.77;;;;;;;-3.36;62.62;95414.50;4209079;28;20131;-70
2024/01/11 03:04:24;;;;;;;38.60;23.02;;;;;;;-3.27;62.20;95404.81;4206589;28;20047;-70
2024/01/11 03:06:27;;;;;;;36.17;20.45;;;;;;;-3.17;61.88;95403.56;4207729;28;20186;-71
2024/01/11 03:08:29;;;;;;;40.80;20.63;;;;;;;-3.16;61.41;95400.97;4203561;28;20044;-70
2024/01/11 03:10:30;;;;;;;32.47;20.38;;;;;;;-3.23;61.42;95404.63;4210084;28;20178;-70
2024/01/11 03:12:32;;;;;;;34.30;20.30;;;;;;;-3.27;61.67;95407.38;4208815;28;20545;-69
2024/01/11 03:14:34;;;;;;;36.13;19.98;;;;;;;-3.28;61.49;95409.09;4205251;28;20126;-69
2024/01/11 03:16:37;;;;;;;30.27;19.13;;;;;;;-3.27;61.84;95407.38;4206562;28;20104;-71
2024/01/11 03:18:39;;;;;;;32.17;19.13;;;;;;;-3.38;61.91;95406.03;4199448;28;20062;-70
2024/01/11 03:20:41;;;;;;;32.05;19.55;;;;;;;-3.44;62.11;95411.44;4209411;28;20055;-70
2024/01/11 03:22:46;;;;;;;34.10;18.20;;;;;;;-3.56;62.14;95412.69;4202711;28;20051;-70
2024/01/11 03:24:48;;;;;;;38.47;22.75;;;;;;;-3.72;62.97;95404.75;4206112;28;20048;-70
2024/01/11 03:26:50;;;;;;;42.95;26.38;;;;;;;-3.74;63.26;95410.81;4201113;28;20601;-69
2024/01/11 03:28:52;;;;;;;47.15;26.48;;;;;;;-3.94;63.64;95406.41;4207266;28;20052;-70
2024/01/11 03:30:54;;;;;;;45.88;27.60;;;;;;;-4.31;65.17;95412.81;4202708;28;20203;-70
2024/01/11 03:32:56;;;;;;;46.75;28.73;;;;;;;-4.59;65.69;95406.03;4197162;28;20048;-70
2024/01/11 03:34:58;;;;;;;50.90;30.95;;;;;;;-4.72;66.83;95414.19;4201740;28;20094;-70
2024/01/11 03:37:00;;;;;;;43.50;29.38;;;;;;;-4.79;66.70;95411.00;4204612;28;20044;-69
2024/01/11 03:39:02;;;;;;;52.55;31.50;;;;;;;-4.92;67.33;95412.28;4202283;28;20468;-68
2024/01/11 03:41:10;;;;;;;48.00;29.17;;;;;;;-5.09;67.76;95412.78;4201945;28;20050;-68
2024/01/11 03:43:12;;;;;;;49.83;30.67;;;;;;;-5.22;68.25;95414.88;4194983;28;20072;-66
2024/01/11 03:45:18;;;;;;;55.20;31.67;;;;;;;-5.47;68.73;95413.06;4206275;28;20423;-69
2024/01/11 03:47:19;;;;;;;53.58;34.20;;;;;;;-5.37;69.20;95416.19;4204854;28;20048;-68
2024/01/11 03:49:21;;;;;;;57.70;34.78;;;;;;;-5.22;68.97;95409.78;4204430;28;20055;-69
2024/01/11 03:51:23;;;;;;;56.72;35.13;;;;;;;-5.22;69.01;95407.22;4199800;28;20434;-68
2024/01/11 03:53:25;;;;;;;53.90;34.20;;;;;;;-5.13;68.90;95406.94;4203951;28;20051;-69
2024/01/11 03:55:27;;;;;;;58.83;32.65;;;;;;;-5.02;68.51;95406.59;4203262;28;20076;-68
2024/01/11 03:57:29;;;;;;;55.65;33.80;;;;;;;-4.78;68.48;95387.09;4199743;28;20544;-71
2024/01/11 03:59:31;;;;;;;56.50;33.33;;;;;;;-4.43;67.93;95390.19;4208462;28;20070;-71
2024/01/11 04:01:33;;;;;;;59.85;32.85;;;;;;;-4.16;66.15;95388.41;4203185;28;20048;-70
2024/01/11 04:03:34;;;;;;;49.10;30.75;;;;;;;-3.93;65.07;95387.59;4200735;28;20058;-70
2024/01/11 04:05:36;;;;;;;43.33;27.75;;;;;;;-3.75;63.76;95386.09;4203278;28;20047;-70
2024/01/11 04:07:39;;;;;;;45.03;27.52;;;;;;;-3.64;63.27;95388.25;4198381;28;20444;-69
2024/01/11 04:09:40;;;;;;;43.97;26.27;;;;;;;-3.56;62.86;95378.56;4203716;28;20090;-70
2024/01/11 04:11:42;;;;;;;49.50;27.10;;;;;;;-3.58;63.05;95377.78;4200355;28;20048;-69
2024/01/11 04:13:44;;;;;;;41.00;25.88;;;;;;;-3.69;62.27;95369.69;4207015;28;20127;-71
2024/01/11 04:15:46;;;;;;;41.65;25.98;;;;;;;-3.76;62.64;95381.88;4207675;28;20051;-69
2024/01/11 04:17:48;;;;;;;41.72;27.38;;;;;;;-3.94;62.35;95376.53;4206613;28;20070;-70
2024/01/11 04:19:51;;;;;;;48.78;27.52;;;;;;;-4.13;63.27;95375.50;4207930;28;20547;-70
2024/01/11 04:21:52;;;;;;;48.33;29.45;;;;;;;-4.13;64.00;95368.69;4206709;28;20090;-68
2024/01/11 04:23:55;;;;;;;50.80;30.90;;;;;;;-4.18;64.76;95369.72;4201841;28;20051;-70
2024/01/11 04:25:56;;;;;;;53.33;31.60;;;;;;;-4.17;64.91;95366.28;4198535;28;20062;-69
2024/01/11 04:27:58;;;;;;;51.38;31.35;;;;;;;-4.23;64.48;95367.31;4204400;28;20059;-69
2024/01/11 04:30:00;;;;;;;45.10;29.10;;;;;;;-4.14;64.46;95369.56;4206490;28;20127;-70
2024/01/11 04:32:02;;;;;;;48.10;28.60;;;;;;;-3.94;64.44;95360.31;4195715;28;20100;-70
2024/01/11 04:34:04;;;;;;;44.97;27.85;;;;;;;-3.67;63.83;95367.91;4204694;28;20044;-70
2024/01/11 04:36:07;;;;;;;45.53;27.98;;;;;;;-3.47;62.70;95367.16;4204145;28;20053;-70
2024/01/11 04:38:09;;;;;;;43.47;27.52;;;;;;;-3.36;62.25;95367.56;4199368;28;20041;-68
2024/01/11 04:40:11;;;;;;;44.55;27.45;;;;;;;-3.31;61.60;95371.63;4204191;28;20044;-68
2024/01/11 04:42:12;;;;;;;44.90;28.17;;;;;;;-3.31;61.57;95371.63;4202782;28;20056;-69
2024/01/11 04:44:15;;;;;;;47.47;28.42;;;;;;;-3.34;61.22;95376.84;4197912;28;20486;-70
2024/01/11 04:46:17;;;;;;;47.22;28.40;;;;;;;-3.69;62.12;95378.19;4207418;28;20074;-69
2024/01/11 04:48:19;;;;;;;42.28;27.05;;;;;;;-3.77;62.86;95377.63;4204246;28;20078;-72
2024/01/11 04:50:21;;;;;;;45.05;25.95;;;;;;;-3.99;63.58;95382.69;4203540;28;20131;-70
2024/01/11 04:52:24;;;;;;;41.58;27.15;;;;;;;-4.03;63.97;95386.25;4206145;28;20274;-69
2024/01/11 04:54:25;;;;;;;45.08;27.15;;;;;;;-4.32;64.81;95383.00;4202770;28;20556;-70
2024/01/11 04:56:29;;;;;;;44.58;26.23;;;;;;;-4.34;64.81;95383.06;4201204;28;20150;-68
2024/01/11 04:58:31;;;;;;;44.17;26.75;;;;;;;-4.38;64.79;95378.09;4203260;28;20044;-67
2024/01/11 05:00:34;;;;;;;45.15;27.02;;;;;;;-4.53;65.64;95382.84;4202088;28;20539;-70
2024/01/11 05:02:36;;;;;;;42.42;26.42;;;;;;;-4.59;65.62;95380.47;4205495;28;20056;-71
2024/01/11 05:04:38;;;;;;;40.55;24.92;;;;;;;-4.85;66.05;95389.00;4199891;28;20055;-70
2024/01/11 05:06:40;;;;;;;47.50;28.08;;;;;;;-4.86;67.74;95391.59;4203484;28;20043;-68
2024/01/11 05:08:44;;;;;;;42.47;27.63;;;;;;;-5.11;67.76;95397.50;4207622;28;20166;-70
2024/01/11 05:10:46;;;;;;;;;;;;;;;-5.11;67.39;95392.41;4201527;28;20053;-71
2024/01/11 05:12:48;;;;;;;42.03;26.00;;;;;;;-5.20;67.85;95382.47;4205389;28;19927;-69
2024/01/11 05:14:50;;;;;;;50.28;28.92;;;;;;;-5.25;68.24;95389.41;4200826;28;20055;-69
2024/01/11 05:16:51;;;;;;;47.42;26.98;;;;;;;-5.15;68.71;95383.16;4204646;28;20085;-72
2024/01/11 05:18:55;;;;;;;46.47;28.42;;;;;;;-4.89;67.87;95384.06;4202753;28;20391;-69
2024/01/11 05:20:58;;;;;;;44.42;26.08;;;;;;;-4.54;66.81;95372.66;4195300;28;20105;-69
2024/01/11 05:23:00;;;;;;;42.42;26.17;;;;;;;-4.37;65.32;95365.22;4200415;28;20048;-68
2024/01/11 05:25:02;;;;;;;39.07;23.90;;;;;;;-4.44;64.49;95366.34;4206304;28;20063;-69
2024/01/11 05:27:04;;;;;;;38.35;24.25;;;;;;;-4.53;64.62;95361.53;4198662;28;20145;-68
2024/01/11 05:29:06;;;;;;;37.38;23.88;;;;;;;-4.66;65.04;95368.78;4203279;28;20058;-71
2024/01/11 05:31:13;;;;;;;39.55;25.00;;;;;;;-4.75;65.39;95361.44;4202755;28;20051;-70
2024/01/11 05:33:15;;;;;;;35.53;23.27;;;;;;;-4.85;65.11;95353.22;4198021;28;20055;-71
2024/01/11 05:35:17;;;;;;;35.63;23.63;;;;;;;-4.99;65.80;95363.06;4196034;28;20052;-71
2024/01/11 05:37:20;;;;;;;31.45;20.63;;;;;;;-5.05;66.05;95364.09;4203408;28;20321;-70
2024/01/11 05:39:22;;;;;;;35.40;22.30;;;;;;;-4.87;66.67;95354.16;4200670;28;20076;-71
2024/01/11 05:41:24;;;;;;;35.03;22.23;;;;;;;-4.61;66.73;95348.19;4204107;28;20101;-71
2024/01/11 05:43:26;;;;;;;37.95;21.88;;;;;;;-4.43;65.44;95352.69;4198349;28;20075;-69
2024/01/11 05:45:28;;;;;;;34.83;21.25;;;;;;;-4.18;64.83;95352.63;4200305;28;20048;-72
2024/01/11 05:47:46;;;;;;;32.33;21.38;;;;;;;-3.95;63.60;95353.56;4202521;28;20109;-71
2024/01/11 05:49:49;;;;;;;33.17;20.77;;;;;;;-3.99;62.76;95349.44;4200818;28;20135;-71
2024/01/11 05:51:51;;;;;;;32.63;20.95;;;;;;;-3.86;63.13;95348.09;4196327;28;20193;-71
2024/01/11 05:53:53;;;;;;;32.88;20.15;;;;;;;-3.79;62.13;95343.56;4197911;28;20056;-71
2024/01/11 05:55:55;;;;;;;31.73;19.42;;;;;;;-3.76;62.13;95348.59;4204704;28;20048;-70
2024/01/11 05:57:56;;;;;;;31.20;19.90;;;;;;;-3.76;62.44;95344.31;4203132;28;20048;-69
2024/01/11 05:59:58;;;;;;;30.13;20.00;;;;;;;-4.07;62.10;95336.91;4200099;28;20079;-71
2024/01/11 06:02:01;;;;;;;32.20;21.13;;;;;;;-4.14;62.63;95341.41;4201499;28;20467;-70
2024/01/11 06:04:03;;;;;;;30.25;19.85;;;;;;;-4.25;63.08;95340.97;4204884;28;20467;-71
2024/01/11 06:06:06;;;;;;;34.20;20.98;;;;;;;-4.43;63.63;95337.34;4204372;28;20159;-71
2024/01/11 06:08:08;;;;;;;33.75;22.60;;;;;;;-4.32;64.11;95335.22;4204753;28;20040;-70
2024/01/11 06:10:10;;;;;;;37.40;22.48;;;;;;;-4.23;63.97;95328.94;4203245;28;20044;-70
2024/01/11 06:12:13;;;;;;;38.70;22.17;;;;;;;-4.17;63.51;95335.59;4196158;28;20064;-69
2024/01/11 06:14:15;;;;;;;36.28;22.33;;;;;;;-4.10;63.83;95331.91;4203668;28;20082;-71
2024/01/11 06:16:17;;;;;;;36.80;24.15;;;;;;;-4.22;63.59;95334.91;4201973;28;20066;-70
2024/01/11 06:18:19;;;;;;;39.88;23.15;;;;;;;-4.39;63.55;95338.03;4202665;28;20052;-71
2024/01/11 06:20:21;;;;;;;41.15;25.10;;;;;;;-4.55;63.87;95332.63;4202018;28;20196;-70
2024/01/11 06:22:23;;;;;;;42.40;24.85;;;;;;;-4.56;64.74;95336.06;4193610;28;20044;-71
2024/01/11 06:24:25;;;;;;;43.75;25.52;;;;;;;-4.44;64.58;95337.38;4200191;28;20045;-68
2024/01/11 06:26:27;;;;;;;43.22;25.50;;;;;;;-4.32;65.13;95332.66;4206962;28;20134;-70
2024/01/11 06:28:29;;;;;;;39.38;25.02;;;;;;;-4.14;64.73;95331.16;4193881;28;20048;-72
2024/01/11 06:30:33;;;;;;;39.28;22.60;;;;;;;-3.85;64.02;95326.72;4195845;28;20418;-70
2024/01/11 06:32:35;;;;;;;31.80;19.83;;;;;;;-3.30;62.02;95326.34;4207974;28;20105;-70
2024/01/11 06:34:37;;;;;;;37.25;21.00;;;;;;;-3.16;61.69;95324.06;4200600;28;20515;-70
2024/01/11 06:36:39;;;;;;;33.67;21.60;;;;;;;-3.21;61.54;95314.91;4201471;28;20154;-68
2024/01/11 06:38:41;;;;;;;34.58;20.40;;;;;;;-3.27;61.08;95308.28;4199235;28;20494;-70
2024/01/11 06:40:43;;;;;;;33.80;21.42;;;;;;;-3.50;61.39;95311.75;4205186;28;20048;-71
2024/01/11 06:42:45;;;;;;;35.17;22.52;;;;;;;-3.63;61.60;95310.56;4205353;28;20060;-69
2024/01/11 06:44:47;;;;;;;34.95;21.77;;;;;;;-3.47;62.05;95309.06;4203689;28;20048;-68
2024/01/11 06:46:50;;;;;;;36.75;22.83;;;;;;;-3.55;61.99;95305.97;4199672;28;20101;-68
2024/01/11 06:48:52;;;;;;;41.20;24.42;;;;;;;-3.53;62.91;95309.28;4202180;28;20110;-69
2024/01/11 06:50:54;;;;;;;32.05;20.25;;;;;;;-3.57;61.91;95312.88;4206784;28;20532;-67
2024/01/11 06:53:01;;;;;;;32.22;19.10;;;;;;;-3.58;61.81;95303.53;4200093;28;20463;-70
2024/01/11 06:55:04;;;;;;;30.10;18.77;;;;;;;-3.84;62.32;95315.59;4210201;28;20082;-68
2024/01/11 06:57:05;;;;;;;30.92;19.40;;;;;;;-3.87;63.66;95312.28;4203074;28;20127;-68
2024/01/11 06:59:07;;;;;;;33.10;19.73;;;;;;;-3.88;63.08;95303.78;4198213;28;20353;-71
2024/01/11 07:01:10;;;;;;;29.88;18.75;;;;;;;-3.68;63.26;95313.28;4205505;28;20486;-68
2024/01/11 07:03:12;;;;;;;31.17;18.95;;;;;;;-3.63;62.36;95308.00;4203005;28;20056;-69
2024/01/11 07:05:15;;;;;;;30.13;18.55;;;;;;;-3.62;62.67;95314.78;4202042;28;20055;-67
2024/01/11 07:07:16;;;;;;;28.08;18.00;;;;;;;-3.75;62.52;95309.28;4200073;28;20133;-66
2024/01/11 07:09:19;;;;;;;26.98;17.25;;;;;;;-3.69;62.87;95313.34;4209360;28;20143;-69
2024/01/11 07:11:21;;;;;;;31.38;19.13;;;;;;;-3.77;62.86;95306.78;4195734;28;20127;-70
2024/01/11 07:13:23;;;;;;;30.77;19.85;;;;;;;-3.84;62.65;95313.03;4202195;28;20474;-70
2024/01/11 07:15:25;;;;;;;31.27;18.55;;;;;;;-3.88;62.73;95314.03;4209697;28;20143;-68
2024/01/11 07:17:26;;;;;;;32.30;20.25;;;;;;;-3.91;63.14;95312.44;4206089;28;20146;-70
2024/01/11 07:19:29;;;;;;;29.23;19.30;;;;;;;-3.86;63.40;95317.38;4197194;28;20075;-70
2024/01/11 07:21:31;;;;;;;32.65;20.23;;;;;;;-3.95;63.31;95315.16;4206635;28;20055;-69
2024/01/11 07:23:33;;;;;;;36.00;20.90;;;;;;;-3.78;63.15;95314.53;4201437;28;20070;-70
2024/01/11 07:25:35;;;;;;;31.60;20.67;;;;;;;-3.74;63.15;95311.81;4197655;28;20135;-70
2024/01/11 07:27:37;;;;;;;34.85;21.10;;;;;;;-3.69;62.89;95309.06;4198723;28;20106;-70
2024/01/11 07:29:39;;;;;;;33.90;21.02;;;;;;;-3.64;63.21;95309.72;4204883;28;20430;-68
2024/01/11 07:31:41;;;;;;;35.60;21.40;;;;;;;-3.45;62.30;95299.59;4203517;28;20105;-71
2024/01/11 07:33:44;;;;;;;35.47;21.25;;;;;;;-3.21;62.68;95296.94;4202941;28;20384;-68
2024/01/11 07:35:47;;;;;;;32.88;20.75;;;;;;;-3.11;61.01;95295.69;4199153;28;20036;-70
2024/01/11 07:37:49;;;;;;;35.65;21.95;;;;;;;-3.11;62.11;95298.25;4201734;28;20044;-71
2024/01/11 07:39:51;;;;;;;49.35;28.45;;;;;;;-3.31;62.15;95304.19;4204096;28;20126;-70
2024/01/11 07:41:53;;;;;;;47.63;29.45;;;;;;;-3.35;62.62;95300.06;4199953;28;20063;-69
2024/01/11 07:43:58;;;;;;;39.53;24.02;;;;;;;-3.27;62.44;95299.75;4200149;28;20075;-70
2024/01/11 07:46:01;;;;;;;36.33;23.50;;;;;;;-3.11;62.01;95296.53;4199817;28;20105;-70
2024/01/11 07:48:04;;;;;;;39.60;25.67;;;;;;;-2.84;62.54;95300.56;4198505;28;20040;-71
2024/01/11 07:50:09;;;;;;;48.22;29.50;;;;;;;-2.91;61.54;95303.38;4205304;28;20576;-71
2024/01/11 07:52:12;;;;;;;48.22;30.40;;;;;;;-2.72;61.88;95300.06;4202211;28;20058;-70
2024/01/11 07:54:13;;;;;;;48.00;30.10;;;;;;;-2.77;60.88;95299.44;4200955;28;20499;-72
2024/01/11 07:56:15;;;;;;;45.83;29.48;;;;;;;-2.74;61.68;95294.19;4193621;28;20053;-71
2024/01/11 07:58:17;;;;;;;47.80;29.48;;;;;;;-2.60;60.58;95293.59;4200418;28;20056;-70
2024/01/11 08:00:19;;;;;;;47.60;30.85;;;;;;;-2.60;60.76;95288.44;4206637;28;20559;-71
2024/01/11 08:02:23;;;;;;;49.70;30.67;;;;;;;-2.43;60.64;95290.31;4205141;28;20052;-70
2024/01/11 08:04:24;;;;;;;50.03;31.55;;;;;;;-2.33;60.21;95289.00;4201731;28;20066;-70
2024/01/11 08:06:26;;;;;;;50.00;32.20;;;;;;;-2.56;60.05;95287.44;4204433;28;20450;-71
2024/01/11 08:08:28;;;;;;;59.35;34.28;;;;;;;-2.57;60.06;95285.78;4198333;28;20048;-70
2024/01/11 08:10:31;;;;;;;52.78;33.83;;;;;;;-3.05;61.26;95290.31;4195472;28;20151;-71
2024/01/11 08:12:32;;;;;;;62.08;35.28;;;;;;;-3.07;61.66;95291.28;4201060;28;20052;-69
2024/01/11 08:14:34;;;;;;;53.15;34.40;;;;;;;-2.96;61.88;95281.41;4205723;28;20440;-70
2024/01/11 08:16:36;;;;;;;55.80;34.47;;;;;;;-2.71;61.63;95286.34;4194153;28;20048;-69
2024/01/11 08:18:38;;;;;;;57.40;34.20;;;;;;;-2.59;61.63;95279.88;4194946;28;20517;-69
2024/01/11 08:20:40;;;;;;;52.63;34.42;;;;;;;-2.64;61.02;95281.81;4202839;28;20106;-70
2024/01/11 08:22:47;;;;;;;57.58;32.17;;;;;;;-2.54;59.90;95276.22;4205380;28;20055;-69
2024/01/11 08:24:50;;;;;;;54.78;34.10;;;;;;;-2.56;59.65;95272.88;4205800;28;20538;-70
2024/01/11 08:26:52;;;;;;;52.28;34.63;;;;;;;-2.51;60.27;95278.66;4201423;28;20146;-71
2024/01/11 08:28:54;;;;;;;57.08;35.45;;;;;;;-2.33;60.25;95274.44;4201036;28;20086;-71
2024/01/11 08:30:56;;;;;;;58.35;36.20;;;;;;;-2.25;60.34;95276.69;4195635;28;20550;-70
2024/01/11 08:32:58;;;;;;;50.45;34.05;;;;;;;-2.32;59.67;95283.00;4197069;28;20517;-74
2024/01/11 08:35:00;;;;;;;57.67;34.83;;;;;;;-2.43;60.12;95278.31;4194428;28;20044;-70
2024/01/11 08:37:02;;;;;;;61.17;34.78;;;;;;;-2.34;60.25;95277.09;4198740;28;20132;-70
2024/01/11 08:39:08;;;;;;;59.83;36.88;;;;;;;-2.24;59.93;95283.47;4207080;28;20052;-70
2024/01/11 08:41:10;;;;;;;55.60;36.75;;;;;;;-2.24;59.54;95283.47;4195245;28;20055;-72
2024/01/11 08:43:12;;;;;;;59.78;38.00;;;;;;;-2.21;59.32;95280.78;4202072;28;20044;-71
2024/01/11 08:45:17;;;;;;;62.20;36.45;;;;;;;-2.48;60.26;95283.63;4205818;28;20079;-69
2024/01/11 08:47:20;;;;;;;59.72;35.72;;;;;;;-2.52;60.78;95278.69;4206416;28;20047;-69
2024/01/11 08:49:22;;;;;;;53.47;34.83;;;;;;;-2.74;60.84;95279.63;4193107;28;20152;-71
2024/01/11 08:51:24;;;;;;;53.05;34.38;;;;;;;-2.97;62.03;95278.03;4201776;28;20502;-70
2024/01/11 08:53:25;;;;;;;57.00;36.58;;;;;;;-2.71;61.65;95270.94;4207253;28;20397;-72
2024/01/11 08:55:27;;;;;;;60.65;34.22;;;;;;;-2.38;60.89;95271.25;4194944;28;20105;-70
2024/01/11 08:57:29;;;;;;;55.53;33.78;;;;;;;-2.04;59.74;95263.78;4203802;28;20172;-71
2024/01/11 08:59:32;;;;;;;55.22;34.20;;;;;;;-1.79;59.21;95258.38;4200121;28;20052;-71
2024/01/11 09:01:35;;;;;;;54.38;33.85;;;;;;;-1.80;58.37;95262.69;4199347;28;20083;-70
2024/01/11 09:03:37;;;;;;;64.30;38.92;;;;;;;-2.03;58.77;95256.00;4206801;28;20424;-72
2024/01/11 09:05:39;;;;;;;57.03;34.10;;;;;;;-2.06;59.80;95248.47;4195559;28;20051;-72
2024/01/11 09:07:42;;;;;;;60.85;37.03;;;;;;;-1.68;58.86;95245.84;4197073;28;20078;-72
2024/01/11 09:09:44;;;;;;;53.28;34.47;;;;;;;-1.67;58.18;95242.38;4205935;28;20060;-73
2024/01/11 09:11:57;;;;;;;57.80;32.72;;;;;;;-1.60;57.50;95237.78;4194878;28;20157;-69
2024/01/11 09:13:59;;;;;;;50.50;30.92;;;;;;;-1.59;57.41;95234.31;4203808;28;20067;-71
2024/01/11 09:16:01;;;;;;;48.10;30.35;;;;;;;-1.61;57.72;95236.97;4206675;28;20048;-68
2024/01/11 09:18:03;;;;;;;48.58;31.77;;;;;;;-1.46;57.22;95233.66;4208020;28;20047;-71
2024/01/11 09:20:06;;;;;;;59.78;32.20;;;;;;;-1.37;57.47;95224.69;4205952;28;20577;-70
2024/01/11 09:22:09;;;;;;;54.72;31.23;;;;;;;-1.54;57.32;95230.63;4198178;28;20448;-72